Time;durP1;ratioP1;P1;durP2;ratioP2;P2;SDS_P1;SDS_P2;PMS_P1;PMS_P2;Temp;Humidity;BMP_temperature;BMP_pressure;BME280_temperature;BME280_humidity;BME280_pressure;Samples;Min_cycle;Max_cycle;Signal;HPM_P1;HPM_P2
2023/10/09 00:02:09;;;;;;;8.02;4.88;;;;;;;20.86;58.50;102105.81;5004281;28;20041;-34
2023/10/09 00:04:37;;;;;;;8.95;5.93;;;;;;;20.85;58.65;102098.72;5003607;28;20050;-35
2023/10/09 00:07:07;;;;;;;6.65;4.57;;;;;;;20.85;58.63;102102.25;5004877;28;20430;-35
2023/10/09 00:09:46;;;;;;;8.43;5.35;;;;;;;20.85;58.59;102096.03;5004082;28;20136;-35
2023/10/09 00:12:22;;;;;;;7.45;5.00;;;;;;;20.85;58.87;102098.72;5002479;28;20086;-34
2023/10/09 00:14:50;;;;;;;7.72;5.32;;;;;;;20.84;58.96;102105.97;5008443;28;20057;-35
2023/10/09 00:17:17;;;;;;;7.80;5.47;;;;;;;20.85;58.52;102120.28;5006617;28;20430;-35
2023/10/09 00:19:54;;;;;;;6.82;4.97;;;;;;;20.84;58.83;102118.59;5007554;28;20046;-35
2023/10/09 00:25:09;;;;;;;8.50;5.40;;;;;;;20.84;59.25;102113.19;5000684;28;20037;-35
2023/10/09 00:27:44;;;;;;;8.32;5.05;;;;;;;20.84;58.93;102107.81;5007470;28;20053;-35
2023/10/09 00:30:21;;;;;;;6.53;4.70;;;;;;;20.85;58.69;102112.19;5006418;28;20061;-35
2023/10/09 00:33:07;;;;;;;7.28;4.82;;;;;;;20.84;58.78;102114.03;5009011;28;20136;-35
2023/10/09 00:40:47;;;;;;;6.43;4.63;;;;;;;20.85;59.28;102106.81;5016443;28;20050;-35
2023/10/09 00:43:14;;;;;;;5.43;4.18;;;;;;;20.85;58.91;102107.66;4998672;28;20397;-35
2023/10/09 00:45:44;;;;;;;5.95;4.60;;;;;;;20.85;59.34;102101.41;5004302;28;20442;-36
2023/10/09 00:48:14;;;;;;;7.07;4.65;;;;;;;20.85;58.66;102104.09;5004173;28;20046;-35
2023/10/09 00:50:52;;;;;;;7.85;4.93;;;;;;;20.85;59.21;102096.03;5007653;28;20045;-35
2023/10/09 00:53:30;;;;;;;8.13;5.07;;;;;;;20.85;59.07;102091.47;5004932;28;20051;-35
2023/10/09 00:56:21;;;;;;;6.55;4.97;;;;;;;20.86;58.76;102089.63;5003554;28;20465;-35
2023/10/09 00:58:55;;;;;;;7.22;4.82;;;;;;;20.87;58.73;102091.34;5004070;28;20050;-36
2023/10/09 01:01:28;;;;;;;5.22;4.32;;;;;;;20.86;58.52;102086.94;5006919;28;20081;-35
2023/10/09 01:03:54;;;;;;;4.40;3.80;;;;;;;20.86;59.21;102089.63;5005524;28;20061;-35
2023/10/09 01:06:27;;;;;;;7.55;4.53;;;;;;;20.86;58.89;102084.25;5004957;28;20042;-35
2023/10/09 01:09:09;;;;;;;6.10;4.50;;;;;;;20.86;59.17;102077.00;5007282;28;20054;-34
2023/10/09 01:11:47;;;;;;;6.70;4.78;;;;;;;20.86;58.96;102082.41;4999909;28;20078;-35
2023/10/09 01:14:16;;;;;;;7.15;4.53;;;;;;;20.87;59.07;102083.28;5002355;28;20066;-36
2023/10/09 01:16:43;;;;;;;6.25;3.92;;;;;;;20.87;59.07;102067.09;5002531;28;20048;-35
2023/10/09 01:19:23;;;;;;;6.45;4.47;;;;;;;20.86;59.00;102077.00;5003185;28;20544;-35
2023/10/09 01:21:54;;;;;;;6.35;4.72;;;;;;;20.86;59.10;102066.22;5005320;28;20060;-35
2023/10/09 01:24:22;;;;;;;6.93;4.80;;;;;;;20.87;59.29;102053.63;5003567;28;20078;-35
2023/10/09 01:26:49;;;;;;;5.97;3.95;;;;;;;20.86;58.59;102058.13;5002979;28;20465;-35
2023/10/09 01:29:21;;;;;;;7.30;4.50;;;;;;;20.87;58.84;102056.31;5005757;28;20092;-35
2023/10/09 01:32:00;;;;;;;6.00;4.57;;;;;;;20.87;58.78;102059.88;4999642;28;20053;-35
2023/10/09 01:34:43;;;;;;;5.88;4.35;;;;;;;20.87;58.90;102057.16;5002767;28;20137;-35
2023/10/09 01:37:18;;;;;;;7.47;4.65;;;;;;;20.87;58.61;102050.94;5000871;28;20502;-35
2023/10/09 01:39:48;;;;;;;6.93;4.35;;;;;;;20.87;58.98;102042.84;4998100;28;20042;-35
2023/10/09 01:42:31;;;;;;;5.47;4.20;;;;;;;20.88;59.16;102058.03;5002785;28;20341;-35
2023/10/09 01:45:03;;;;;;;;;;;;;;;20.87;58.91;102050.94;5003020;28;20046;-35
2023/10/09 01:47:31;;;;;;;6.50;4.15;;;;;;;20.90;58.50;102045.22;5002631;28;19936;-35
2023/10/09 01:49:58;;;;;;;6.10;3.88;;;;;;;20.87;58.84;102038.31;5002630;28;20046;-35
2023/10/09 01:52:25;;;;;;;5.10;3.70;;;;;;;20.87;58.67;102037.47;5003592;28;20340;-35
2023/10/09 01:54:53;;;;;;;5.90;4.25;;;;;;;20.87;58.87;102037.47;5001119;28;20050;-35
2023/10/09 01:57:23;;;;;;;5.40;4.55;;;;;;;20.86;58.83;102036.59;5009116;28;20053;-35
2023/10/09 01:59:53;;;;;;;8.05;4.43;;;;;;;20.87;59.26;102026.69;5009530;28;20054;-35
2023/10/09 02:02:26;;;;;;;5.93;3.83;;;;;;;20.87;58.58;102029.38;5004399;28;20050;-35
2023/10/09 02:07:51;;;;;;;6.25;4.25;;;;;;;20.87;59.03;102026.69;5005475;28;20104;-35
2023/10/09 02:13:06;;;;;;;6.47;4.20;;;;;;;20.86;58.91;102027.66;5000463;28;20157;-35
2023/10/09 02:21:01;;;;;;;7.43;4.68;;;;;;;20.87;58.88;102018.59;5002332;28;20386;-35
2023/10/09 02:23:49;;;;;;;7.00;3.90;;;;;;;20.85;59.35;102023.25;5004476;28;20060;-35
2023/10/09 02:28:58;;;;;;;6.70;4.22;;;;;;;20.86;59.11;102015.03;5009228;28;20046;-35
2023/10/09 02:31:35;;;;;;;6.07;4.25;;;;;;;20.86;59.23;102014.19;5006087;28;20093;-35
2023/10/09 02:34:04;;;;;;;7.10;3.88;;;;;;;20.85;58.82;102018.72;5004873;28;20144;-35
2023/10/09 02:36:34;;;;;;;6.05;3.83;;;;;;;20.85;59.19;102007.09;5004881;28;20046;-35
2023/10/09 02:39:05;;;;;;;6.10;4.10;;;;;;;20.85;58.71;102013.31;5005117;28;20498;-35
2023/10/09 02:41:34;;;;;;;7.55;4.43;;;;;;;20.85;59.50;102009.78;5000052;28;20046;-35
2023/10/09 02:44:10;;;;;;;5.80;3.65;;;;;;;20.85;59.06;102015.19;5004435;28;20364;-35
2023/10/09 02:46:39;;;;;;;6.13;3.90;;;;;;;20.84;58.88;102017.03;5006197;28;20050;-35
2023/10/09 02:49:09;;;;;;;5.18;4.05;;;;;;;20.84;59.03;102005.41;5006566;28;20045;-35
2023/10/09 02:51:47;;;;;;;5.15;3.90;;;;;;;20.85;59.11;101994.47;5005770;28;20054;-35
2023/10/09 02:59:32;;;;;;;4.88;3.67;;;;;;;20.84;59.01;102006.25;5001555;28;20057;-34
2023/10/09 03:02:02;;;;;;;5.88;4.07;;;;;;;20.84;59.17;102002.72;5007173;28;20421;-34
2023/10/09 03:04:31;;;;;;;3.95;3.35;;;;;;;20.83;59.37;101979.47;5007057;28;20104;-34
2023/10/09 03:06:58;;;;;;;8.23;4.05;;;;;;;20.84;59.15;101978.44;5006384;28;20242;-35
2023/10/09 03:09:26;;;;;;;6.85;3.70;;;;;;;20.83;59.31;101977.59;5001293;28;20096;-34
2023/10/09 03:12:01;;;;;;;5.28;3.90;;;;;;;20.83;59.48;101985.69;5001523;28;20045;-34
2023/10/09 03:14:31;;;;;;;4.35;3.35;;;;;;;20.83;59.20;101979.47;5001186;28;20050;-34
2023/10/09 03:16:59;;;;;;;6.82;4.07;;;;;;;20.83;59.31;101979.47;5004077;28;20050;-34
2023/10/09 03:19:29;;;;;;;4.53;3.60;;;;;;;20.83;59.13;101984.84;5001851;28;20050;-34
2023/10/09 03:22:00;;;;;;;5.50;3.55;;;;;;;20.83;58.96;101983.00;5004495;28;20053;-34
2023/10/09 03:24:30;;;;;;;5.95;3.70;;;;;;;20.83;59.24;101965.97;5002648;28;20042;-34
2023/10/09 03:26:57;;;;;;;5.38;3.28;;;;;;;20.83;59.57;101958.75;5002619;28;20038;-34
2023/10/09 03:29:25;;;;;;;5.47;3.42;;;;;;;20.83;58.90;101955.22;5002942;28;20108;-35
2023/10/09 03:31:51;;;;;;;5.85;3.75;;;;;;;20.83;59.29;101968.69;5004827;28;20056;-35
2023/10/09 03:34:18;;;;;;;4.90;3.22;;;;;;;20.83;59.57;101968.69;5005753;28;20052;-35
2023/10/09 03:36:48;;;;;;;4.60;3.38;;;;;;;20.82;59.31;101975.88;5007156;28;20050;-35
2023/10/09 03:42:04;;;;;;;4.88;3.40;;;;;;;20.83;59.67;102018.03;5003785;28;20056;-35
2023/10/09 03:44:39;;;;;;;5.22;3.47;;;;;;;20.83;59.66;102023.41;5007160;28;20081;-35
2023/10/09 03:47:07;;;;;;;6.97;3.67;;;;;;;20.84;59.61;102024.25;5010363;28;20133;-35
2023/10/09 03:49:39;;;;;;;4.00;3.03;;;;;;;20.85;59.04;102031.34;5003539;28;20042;-35
2023/10/09 03:52:09;;;;;;;4.20;2.88;;;;;;;20.84;59.53;102022.41;5006279;28;20383;-34
2023/10/09 03:54:38;;;;;;;4.18;3.28;;;;;;;20.84;59.50;102024.25;5004165;28;20068;-35
2023/10/09 03:57:05;;;;;;;5.47;2.80;;;;;;;20.85;59.16;102012.47;5005269;28;20057;-35
2023/10/09 03:59:32;;;;;;;5.15;3.00;;;;;;;20.86;59.54;102011.47;5004944;28;20134;-35
2023/10/09 04:01:59;;;;;;;5.47;2.92;;;;;;;20.85;59.33;102004.41;5004922;28;20074;-35
2023/10/09 04:04:28;;;;;;;6.15;3.40;;;;;;;20.87;59.40;102002.44;5001386;28;20136;-35
2023/10/09 04:06:55;;;;;;;6.18;3.17;;;;;;;20.86;59.29;102011.47;5003582;28;20050;-35
2023/10/09 04:14:48;;;;;;;7.00;4.15;;;;;;;20.88;59.62;102014.91;5008898;28;20445;-35
2023/10/09 04:22:39;;;;;;;9.40;4.10;;;;;;;20.88;59.75;102009.50;5004291;28;20057;-35
2023/10/09 04:25:25;;;;;;;8.43;4.25;;;;;;;20.87;59.02;101989.78;5005030;28;20352;-35
2023/10/09 04:30:46;;;;;;;10.25;4.82;;;;;;;20.87;59.08;101979.03;5010282;28;20054;-35
2023/10/09 04:33:40;;;;;;;9.35;4.55;;;;;;;20.87;59.39;101984.41;5008656;28;20046;-35
2023/10/09 04:39:15;;;;;;;12.13;5.25;;;;;;;20.87;59.49;101986.25;5005996;28;20045;-35
2023/10/09 04:44:19;;;;;;;11.95;5.65;;;;;;;20.89;59.39;101984.25;5006328;28;20042;-35
2023/10/09 05:02:56;;;;;;;14.98;6.45;;;;;;;20.90;59.43;101994.91;5010031;28;20073;-35
2023/10/09 05:08:29;;;;;;;16.40;5.93;;;;;;;20.90;59.09;102003.00;5003735;28;20389;-35
2023/10/09 05:16:25;;;;;;;16.92;6.38;;;;;;;20.90;59.32;102029.94;5004074;28;20046;-35
2023/10/09 05:18:56;;;;;;;17.17;6.13;;;;;;;20.91;59.43;102041.56;5005843;28;20050;-35
2023/10/09 05:32:03;;;;;;;14.48;5.90;;;;;;;20.92;59.24;102032.47;5006740;28;20046;-35
2023/10/09 05:37:24;;;;;;;11.70;5.88;;;;;;;20.93;58.91;102050.34;5004422;28;20394;-35
2023/10/09 05:40:38;;;;;;;16.48;6.47;;;;;;;20.92;59.21;102059.44;5004719;28;20062;-35
2023/10/09 05:42:57;;;;;;;18.33;5.97;;;;;;;20.94;59.03;102054.72;4995852;28;20326;-35
2023/10/09 05:47:57;;;;;;;11.05;5.80;;;;;;;20.93;59.28;102045.81;4998363;28;20045;-35
2023/10/09 06:03:45;;;;;;;16.65;6.43;;;;;;;20.91;58.85;101972.34;4999392;28;20617;-35
2023/10/09 06:06:18;;;;;;;11.55;5.60;;;;;;;20.93;59.03;101988.34;5000549;28;20082;-34
2023/10/09 06:16:43;;;;;;;13.55;6.35;;;;;;;20.94;59.34;101963.09;5001938;28;20213;-34
2023/10/09 06:19:12;;;;;;;11.75;5.38;;;;;;;20.93;59.31;101988.34;5002969;28;20057;-34
2023/10/09 06:22:19;;;;;;;10.82;5.25;;;;;;;20.92;58.89;102003.69;4996703;28;20057;-34
2023/10/09 06:24:33;;;;;;;12.27;5.55;;;;;;;20.94;59.10;101995.44;5004052;28;20054;-35
2023/10/09 06:29:37;;;;;;;11.15;5.50;;;;;;;20.95;58.87;101992.63;4998019;28;20054;-35
2023/10/09 06:35:15;;;;;;;9.45;5.80;;;;;;;20.94;59.36;102027.78;4998827;28;20102;-35
2023/10/09 06:43:53;;;;;;;8.77;5.00;;;;;;;20.97;59.33;102053.59;5005737;28;20054;-35
2023/10/09 06:48:44;;;;;;;9.35;4.88;;;;;;;20.97;59.10;102062.53;4997370;28;20049;-35
2023/10/09 06:51:40;;;;;;;7.95;4.60;;;;;;;20.97;59.08;102054.44;4997484;28;20062;-35
2023/10/09 06:54:04;;;;;;;9.68;4.95;;;;;;;20.99;59.32;102055.19;5001280;28;20046;-35
2023/10/09 06:59:20;;;;;;;10.63;5.20;;;;;;;20.99;59.00;102054.34;5001740;28;20129;-35
2023/10/09 07:07:13;;;;;;;9.95;5.45;;;;;;;21.00;58.90;102053.31;4996437;28;20252;-35
2023/10/09 07:09:43;;;;;;;8.48;4.95;;;;;;;21.00;59.21;102056.03;4998804;28;20459;-35
2023/10/09 07:12:20;;;;;;;9.50;4.95;;;;;;;21.00;58.75;102046.09;4999598;28;20496;-35
2023/10/09 07:17:21;;;;;;;14.07;5.50;;;;;;;21.00;58.74;102019.13;5005772;28;20069;-35
2023/10/09 07:35:46;;;;;;;8.57;5.13;;;;;;;21.02;59.18;101932.72;5003855;28;20077;-34
2023/10/09 07:38:20;;;;;;;7.78;4.57;;;;;;;21.02;58.82;101943.50;5001194;28;20142;-35
2023/10/09 07:46:32;;;;;;;9.30;4.47;;;;;;;21.06;59.15;102045.50;5003453;28;20058;-35
2023/10/09 07:49:09;;;;;;;8.15;4.68;;;;;;;21.08;58.78;102038.13;5002078;28;20054;-35
2023/10/09 07:51:37;;;;;;;8.77;4.80;;;;;;;21.08;58.97;102032.75;4996632;28;20058;-35
2023/10/09 07:54:07;;;;;;;10.75;5.15;;;;;;;21.10;58.77;102036.13;4998649;28;20054;-35
2023/10/09 07:56:39;;;;;;;12.48;5.30;;;;;;;21.10;58.52;102028.03;4997695;28;20106;-35
2023/10/09 07:59:10;;;;;;;15.63;5.73;;;;;;;21.11;58.69;102027.06;4995718;28;20446;-35
2023/10/09 08:01:58;;;;;;;19.17;7.43;;;;;;;21.13;58.45;102035.00;5001503;28;20054;-36
2023/10/09 08:07:25;;;;;;;18.58;6.60;;;;;;;21.15;58.65;102043.81;4982988;28;20067;-35
2023/10/09 08:15:20;;;;;;;13.57;6.53;;;;;;;21.17;58.52;102064.22;5004149;28;20347;-35
2023/10/09 08:18:13;;;;;;;16.27;5.93;;;;;;;21.17;58.97;102064.22;5004702;28;20045;-36
2023/10/09 08:23:48;;;;;;;23.60;7.50;;;;;;;21.20;58.55;102081.97;5006028;28;20054;-35
2023/10/09 08:26:28;;;;;;;19.35;6.72;;;;;;;21.20;58.78;102082.81;5003793;28;20350;-36
2023/10/09 08:31:56;;;;;;;20.67;6.90;;;;;;;21.24;58.41;102096.00;5004233;28;20113;-35
2023/10/09 08:34:27;;;;;;;16.92;6.30;;;;;;;21.25;58.89;102097.69;5005152;28;20246;-35
2023/10/09 08:36:56;;;;;;;20.85;6.82;;;;;;;21.27;58.69;102098.41;5004270;28;20042;-36
2023/10/09 08:39:26;;;;;;;15.85;6.43;;;;;;;21.29;58.77;102093.72;5004520;28;20145;-35
2023/10/09 08:41:57;;;;;;;14.65;6.30;;;;;;;21.30;58.67;102100.81;5008133;28;20054;-36
2023/10/09 08:44:27;;;;;;;16.98;7.05;;;;;;;21.30;58.48;102106.19;5002836;28;20056;-36
2023/10/09 08:46:55;;;;;;;17.00;7.18;;;;;;;21.33;58.49;102111.34;5005746;28;20050;-36
2023/10/09 08:49:26;;;;;;;13.55;5.90;;;;;;;21.33;58.25;102114.88;5007563;28;20052;-36
2023/10/09 08:51:53;;;;;;;17.67;6.43;;;;;;;21.35;58.64;102112.91;5007130;28;20466;-36
2023/10/09 08:54:20;;;;;;;19.20;5.85;;;;;;;21.35;58.56;102114.75;5003924;28;20582;-36
2023/10/09 08:56:49;;;;;;;16.10;6.28;;;;;;;21.36;58.35;102114.59;5005046;28;20045;-35
2023/10/09 08:59:18;;;;;;;13.38;5.90;;;;;;;21.38;58.46;102117.16;5000131;28;20430;-36
2023/10/09 09:01:49;;;;;;;15.48;6.38;;;;;;;21.39;58.34;102116.19;5001849;28;20050;-35
2023/10/09 09:04:39;;;;;;;14.02;6.47;;;;;;;21.40;58.25;102120.56;5006685;28;20161;-35
2023/10/09 09:07:23;;;;;;;13.65;5.55;;;;;;;21.42;58.52;102115.88;5001748;28;20042;-35
2023/10/09 09:10:21;;;;;;;15.25;6.28;;;;;;;21.42;58.41;102113.16;5002504;28;20050;-36
2023/10/09 09:12:53;;;;;;;14.60;5.50;;;;;;;21.44;58.40;102116.59;5000740;28;20113;-36
2023/10/09 09:15:21;;;;;;;14.27;5.77;;;;;;;21.46;58.32;102121.81;4999228;28;20056;-36
2023/10/09 09:17:51;;;;;;;14.75;5.57;;;;;;;21.46;58.33;102138.84;4997472;28;20058;-35
2023/10/09 09:20:47;;;;;;;12.77;5.60;;;;;;;21.46;58.34;102130.75;5002838;28;20080;-36
2023/10/09 09:23:13;;;;;;;;;;;;;;;21.47;58.40;102132.47;5003038;28;20459;-36
2023/10/09 09:25:47;;;;;;;10.48;4.88;;;;;;;21.50;58.24;102132.16;5009135;28;19926;-35
2023/10/09 09:28:21;;;;;;;13.75;5.32;;;;;;;21.51;58.21;102138.41;5008426;28;20418;-36
2023/10/09 09:30:56;;;;;;;16.67;5.55;;;;;;;21.52;58.22;102134.75;5005091;28;20057;-34
2023/10/09 09:33:40;;;;;;;14.38;5.75;;;;;;;21.51;58.17;102120.41;5003307;28;20045;-34
2023/10/09 09:36:07;;;;;;;10.82;5.28;;;;;;;21.53;58.26;102122.94;5001799;28;20054;-34
2023/10/09 09:38:51;;;;;;;9.73;4.55;;;;;;;21.52;58.00;102121.25;5000233;28;20093;-35
2023/10/09 09:41:24;;;;;;;10.05;5.18;;;;;;;21.54;58.20;102124.63;4999762;28;20057;-35
2023/10/09 09:43:52;;;;;;;10.25;4.85;;;;;;;;;;5001465;28;20046;-35
2023/10/09 09:46:19;;;;;;;10.93;5.18;;;;;;;21.55;58.31;102132.59;5007035;28;20180;-35
2023/10/09 09:48:54;;;;;;;10.85;5.68;;;;;;;21.56;58.07;102131.59;5007374;28;20054;-35
2023/10/09 09:51:23;;;;;;;9.90;4.32;;;;;;;21.57;57.88;102122.50;5003033;28;20058;-35
2023/10/09 09:53:53;;;;;;;8.40;4.55;;;;;;;21.58;58.07;102129.59;5009103;28;20065;-35
2023/10/09 09:56:24;;;;;;;12.07;5.13;;;;;;;21.59;58.10;102128.63;5002959;28;20092;-35
2023/10/09 09:58:53;;;;;;;9.85;5.28;;;;;;;21.58;58.07;102121.50;5002486;28;20054;-35
2023/10/09 10:01:25;;;;;;;8.27;4.95;;;;;;;21.60;58.01;102130.31;4996336;28;20172;-35
2023/10/09 10:04:00;;;;;;;9.98;4.72;;;;;;;21.60;58.14;102124.91;5001208;28;20050;-36
2023/10/09 10:06:32;;;;;;;10.30;4.30;;;;;;;21.62;58.11;102135.56;4999860;28;20064;-35
2023/10/09 10:08:59;;;;;;;10.10;4.85;;;;;;;21.64;58.12;102131.72;5001411;28;20058;-35
2023/10/09 10:11:44;;;;;;;10.73;5.03;;;;;;;21.64;57.88;102128.19;5001103;28;20049;-35
2023/10/09 10:14:21;;;;;;;8.52;4.40;;;;;;;21.66;57.73;102129.72;5002257;28;20104;-35
2023/10/09 10:17:17;;;;;;;9.00;4.20;;;;;;;21.67;57.99;102141.38;5000359;28;20389;-35
2023/10/09 10:19:59;;;;;;;10.23;4.40;;;;;;;21.68;57.98;102140.38;5005287;28;20056;-35
2023/10/09 10:22:28;;;;;;;9.85;4.65;;;;;;;21.70;57.85;102143.78;5005774;28;20428;-35
2023/10/09 10:24:57;;;;;;;7.65;4.03;;;;;;;21.70;57.72;102151.88;5002473;28;20050;-35
2023/10/09 10:30:23;;;;;;;7.47;4.22;;;;;;;21.71;58.09;102159.00;5003412;28;20351;-35
2023/10/09 10:32:54;;;;;;;11.38;4.53;;;;;;;21.73;57.72;102150.72;5003883;28;20069;-35
2023/10/09 10:35:44;;;;;;;9.10;4.47;;;;;;;21.75;57.89;102151.41;5005463;28;20046;-35
2023/10/09 10:38:36;;;;;;;7.88;3.70;;;;;;;21.75;57.84;102154.13;5002445;28;20074;-35
2023/10/09 10:41:11;;;;;;;10.70;4.63;;;;;;;21.75;57.64;102148.72;4998169;28;20054;-34
2023/10/09 10:46:30;;;;;;;7.78;3.80;;;;;;;21.78;57.66;102151.13;5001151;28;20077;-34
2023/10/09 10:49:14;;;;;;;8.85;4.40;;;;;;;21.78;57.62;102149.28;5001427;28;20073;-34
2023/10/09 10:51:47;;;;;;;9.65;4.40;;;;;;;21.79;57.71;102148.31;5007395;28;20061;-34
2023/10/09 10:57:00;;;;;;;6.63;3.83;;;;;;;21.81;57.63;102159.78;5005142;28;20054;-35
2023/10/09 10:59:36;;;;;;;11.82;4.50;;;;;;;21.80;57.86;102149.16;5002004;28;20357;-35
2023/10/09 11:04:41;;;;;;;;;;;;;;;21.81;57.68;102154.41;5001589;28;20058;-35
2023/10/09 11:15:37;;;;;;;6.57;3.83;;;;;;;21.85;57.65;102152.25;5001287;28;20103;-37
2023/10/09 11:18:24;;;;;;;6.43;3.88;;;;;;;21.85;57.32;102158.50;5003674;28;20488;-37
2023/10/09 11:23:53;;;;;;;6.38;3.80;;;;;;;21.86;57.38;102154.78;5002890;28;20398;-36
2023/10/09 11:26:27;;;;;;;8.07;4.13;;;;;;;21.87;57.32;102151.13;5007683;28;20054;-37
2023/10/09 11:29:16;;;;;;;7.28;3.90;;;;;;;21.86;57.58;102145.84;4999287;28;20046;-37
2023/10/09 11:31:59;;;;;;;7.90;3.53;;;;;;;21.88;57.48;102152.81;4998094;28;20369;-37
2023/10/09 11:34:37;;;;;;;5.18;3.30;;;;;;;21.90;57.41;102152.66;4999304;28;20050;-37
2023/10/09 11:37:11;;;;;;;7.55;3.85;;;;;;;21.90;57.27;102144.56;5004053;28;20053;-37
2023/10/09 11:39:51;;;;;;;6.80;3.73;;;;;;;21.91;57.26;102143.59;5006302;28;20046;-37
2023/10/09 11:42:37;;;;;;;7.50;4.15;;;;;;;21.91;57.42;102143.59;5002124;28;20465;-37
2023/10/09 11:45:20;;;;;;;6.90;4.20;;;;;;;21.91;57.52;102155.22;5000771;28;20078;-37
2023/10/09 11:48:00;;;;;;;6.47;3.67;;;;;;;21.93;57.36;102161.31;4999610;28;20049;-37
2023/10/09 11:51:13;;;;;;;6.53;3.60;;;;;;;21.91;57.16;102146.28;5001199;28;20037;-37
2023/10/09 11:53:54;;;;;;;;;;;;;;;21.92;57.12;102147.97;5000537;28;20077;-37
2023/10/09 11:56:26;;;;;;;6.05;3.58;;;;;;;21.97;57.12;102147.53;5001938;28;19925;-37
2023/10/09 11:58:54;;;;;;;7.20;3.42;;;;;;;21.97;57.35;102134.03;5008412;28;20042;-37
2023/10/09 12:01:21;;;;;;;6.10;3.47;;;;;;;21.96;57.41;102127.78;5008752;28;20335;-37
2023/10/09 12:03:53;;;;;;;5.53;3.72;;;;;;;21.96;57.20;102125.09;5007522;28;20053;-37
2023/10/09 12:06:29;;;;;;;10.43;3.58;;;;;;;21.97;57.20;102123.22;5004872;28;20111;-37
2023/10/09 12:08:58;;;;;;;7.47;3.50;;;;;;;21.98;57.06;102128.47;5004141;28;20121;-37
2023/10/09 12:11:31;;;;;;;7.70;3.65;;;;;;;21.98;57.39;102127.63;5003686;28;20060;-37
2023/10/09 12:14:00;;;;;;;7.57;3.72;;;;;;;21.98;57.63;102123.06;5004249;28;20042;-37
2023/10/09 12:16:32;;;;;;;7.90;3.65;;;;;;;21.99;57.20;102123.91;5002189;28;20078;-37
2023/10/09 12:19:02;;;;;;;6.80;3.25;;;;;;;21.99;57.41;102130.19;5003723;28;20713;-37
2023/10/09 12:21:29;;;;;;;8.40;3.60;;;;;;;21.99;57.54;102124.78;5008975;28;20442;-37
2023/10/09 12:23:59;;;;;;;5.32;3.33;;;;;;;21.99;57.39;102126.63;5004516;28;20357;-37
2023/10/09 12:26:31;;;;;;;7.82;3.97;;;;;;;22.00;57.06;102115.69;5006343;28;20103;-37
2023/10/09 12:28:58;;;;;;;7.18;3.40;;;;;;;22.01;57.25;102122.78;5007928;28;20042;-37
2023/10/09 12:31:24;;;;;;;6.20;3.40;;;;;;;22.01;57.28;102128.19;5006154;28;20074;-37
2023/10/09 12:33:51;;;;;;;8.27;3.63;;;;;;;22.01;57.35;102122.78;5011254;28;20434;-37
2023/10/09 12:36:19;;;;;;;7.40;3.67;;;;;;;22.02;57.47;102129.88;5002208;28;20045;-38
2023/10/09 12:38:53;;;;;;;7.40;3.80;;;;;;;22.02;57.20;102123.63;5005403;28;20133;-38
2023/10/09 12:41:25;;;;;;;7.67;3.73;;;;;;;22.03;57.30;102128.03;5004950;28;20054;-38
2023/10/09 12:43:53;;;;;;;9.25;3.70;;;;;;;22.03;57.16;102128.91;5004839;28;20053;-38
2023/10/09 12:46:23;;;;;;;8.10;4.00;;;;;;;22.03;57.21;102123.50;5004438;28;20132;-38
2023/10/09 12:48:49;;;;;;;6.82;3.83;;;;;;;22.03;56.95;102126.19;5000369;28;20064;-38
2023/10/09 12:51:16;;;;;;;5.28;3.50;;;;;;;22.04;57.07;102127.03;5004663;28;20062;-38
2023/10/09 12:53:45;;;;;;;5.60;3.25;;;;;;;22.04;57.33;102135.16;5006172;28;20058;-37
2023/10/09 12:56:12;;;;;;;6.18;3.28;;;;;;;22.05;57.07;102134.13;5000389;28;20389;-37
2023/10/09 12:58:39;;;;;;;4.80;3.33;;;;;;;22.05;57.36;102140.38;5003857;28;20323;-37
2023/10/09 13:01:12;;;;;;;6.30;3.70;;;;;;;22.06;57.39;102143.94;5005145;28;20042;-37
2023/10/09 13:03:38;;;;;;;5.78;3.25;;;;;;;22.05;57.08;102147.63;5009574;28;20452;-37
2023/10/09 13:06:11;;;;;;;7.68;3.60;;;;;;;22.05;57.26;102143.09;5008757;28;20050;-38
2023/10/09 13:08:40;;;;;;;5.63;3.17;;;;;;;22.05;57.04;102137.69;5005202;28;20054;-37
2023/10/09 13:11:16;;;;;;;6.35;3.40;;;;;;;22.06;56.94;102139.38;5002408;28;20053;-37
2023/10/09 13:13:50;;;;;;;6.53;3.60;;;;;;;22.06;57.21;102144.78;5006011;28;20058;-37
2023/10/09 13:16:25;;;;;;;5.72;3.05;;;;;;;22.08;57.26;102141.94;5003168;28;20054;-37
2023/10/09 13:18:54;;;;;;;6.88;3.60;;;;;;;22.07;57.09;102138.41;5001571;28;20061;-37
2023/10/09 13:21:23;;;;;;;6.18;3.35;;;;;;;22.08;56.91;102145.50;5007085;28;20413;-37
2023/10/09 13:23:51;;;;;;;5.45;3.10;;;;;;;22.07;57.32;102141.09;5009035;28;20049;-37
2023/10/09 13:26:18;;;;;;;4.65;3.30;;;;;;;22.07;57.23;102143.81;5006180;28;20050;-37
2023/10/09 13:28:52;;;;;;;8.07;3.65;;;;;;;22.07;57.02;102146.50;5005064;28;20132;-38
2023/10/09 13:31:20;;;;;;;6.20;3.60;;;;;;;22.09;57.40;102151.75;5006101;28;20520;-37
2023/10/09 13:33:48;;;;;;;6.72;3.63;;;;;;;22.09;56.97;102152.59;5006943;28;20152;-37
2023/10/09 13:36:29;;;;;;;6.78;3.47;;;;;;;22.09;56.96;102146.34;5005664;28;20053;-38
2023/10/09 13:41:46;;;;;;;7.05;3.65;;;;;;;22.10;57.30;102143.47;5006444;28;20132;-38
2023/10/09 13:44:13;;;;;;;5.82;3.78;;;;;;;22.10;57.05;102135.38;5002938;28;20042;-38
2023/10/09 13:46:43;;;;;;;5.72;3.42;;;;;;;22.10;56.97;102131.84;5003146;28;20054;-38
2023/10/09 13:49:13;;;;;;;6.05;3.25;;;;;;;22.10;56.92;102132.69;5006650;28;20045;-38
2023/10/09 13:51:44;;;;;;;5.07;3.00;;;;;;;22.11;57.13;102133.53;5001003;28;20097;-38
2023/10/09 13:56:59;;;;;;;5.72;3.53;;;;;;;22.11;56.95;102131.69;5004441;28;20433;-39
2023/10/09 13:59:26;;;;;;;5.22;3.30;;;;;;;22.11;57.02;102126.31;5002139;28;20088;-39
2023/10/09 14:01:54;;;;;;;5.63;2.70;;;;;;;22.11;56.93;102129.00;4996861;28;20058;-37
2023/10/09 14:04:28;;;;;;;4.95;2.97;;;;;;;22.12;57.13;102129.84;5004550;28;20047;-37
2023/10/09 14:06:59;;;;;;;5.57;2.90;;;;;;;22.11;56.80;102123.59;5005347;28;20042;-39
2023/10/09 14:09:44;;;;;;;6.05;3.17;;;;;;;22.13;56.80;102124.31;4996468;28;20077;-39
2023/10/09 14:12:14;;;;;;;5.18;3.05;;;;;;;22.12;56.68;102122.59;5007122;28;20607;-39
2023/10/09 14:14:47;;;;;;;6.28;2.92;;;;;;;22.13;56.67;102129.72;5002603;28;20345;-39
2023/10/09 14:17:14;;;;;;;6.55;3.67;;;;;;;22.13;56.74;102139.69;5002184;28;20057;-36
2023/10/09 14:19:46;;;;;;;5.88;3.78;;;;;;;22.15;56.98;102134.97;4999745;28;20054;-39
2023/10/09 14:22:17;;;;;;;7.63;4.00;;;;;;;22.16;56.70;102132.13;5002864;28;20042;-38
2023/10/09 14:24:46;;;;;;;10.05;4.57;;;;;;;22.16;56.86;102126.72;5005049;28;20233;-39
2023/10/09 14:27:19;;;;;;;8.45;4.53;;;;;;;22.16;57.46;102121.31;4999995;28;20055;-38
2023/10/09 14:29:46;;;;;;;11.32;4.88;;;;;;;22.17;57.53;102122.19;5000697;28;20049;-38
2023/10/09 14:32:14;;;;;;;13.18;4.53;;;;;;;22.17;57.27;102117.63;5006121;28;20084;-38
2023/10/09 14:34:51;;;;;;;11.98;4.50;;;;;;;22.20;57.32;102115.63;5002827;28;20141;-40
2023/10/09 14:37:19;;;;;;;8.63;4.45;;;;;;;22.21;57.44;102122.72;5001592;28;20445;-40
2023/10/09 14:39:50;;;;;;;9.60;4.53;;;;;;;22.22;57.28;102121.72;5001310;28;20152;-38
2023/10/09 14:42:17;;;;;;;10.73;4.38;;;;;;;22.22;57.14;102119.88;5005274;28;20125;-39
2023/10/09 14:44:47;;;;;;;13.48;4.70;;;;;;;22.23;57.03;102121.59;5004455;28;20057;-39
2023/10/09 14:47:14;;;;;;;13.52;4.95;;;;;;;22.23;57.08;102132.38;4997282;28;20081;-39
2023/10/09 14:49:46;;;;;;;8.45;4.00;;;;;;;22.23;57.19;102123.41;5005086;28;20052;-39
2023/10/09 14:52:18;;;;;;;11.98;4.68;;;;;;;22.24;56.93;102127.84;5004130;28;20348;-39
2023/10/09 14:54:46;;;;;;;10.30;4.95;;;;;;;22.24;56.86;102133.25;4996061;28;20042;-39
2023/10/09 14:57:13;;;;;;;9.90;4.38;;;;;;;22.25;57.38;102134.94;4998110;28;20339;-39
2023/10/09 14:59:40;;;;;;;9.27;4.63;;;;;;;22.23;57.03;102121.59;5002433;28;20119;-39
2023/10/09 15:02:09;;;;;;;7.60;4.32;;;;;;;22.24;56.89;102122.44;4999847;28;20042;-39
2023/10/09 15:04:37;;;;;;;9.27;4.65;;;;;;;22.24;57.32;102119.72;5003070;28;20100;-39
2023/10/09 15:07:07;;;;;;;8.73;4.30;;;;;;;22.25;57.19;102118.72;5002244;28;20045;-39
2023/10/09 15:09:36;;;;;;;9.23;4.72;;;;;;;22.25;57.36;102113.31;5004989;28;20046;-39